sensor_id;sensor_type;location;lat;lon;timestamp;P1;durP1;ratioP1;P2;durP2;ratioP2
58222;SDS011;44020;50.890;15.796;2022-12-07T00:02:24;9.60;;;3.00;;
58222;SDS011;44020;50.890;15.796;2022-12-07T00:04:51;4.10;;;1.70;;
58222;SDS011;44020;50.890;15.796;2022-12-07T00:07:18;4.40;;;1.70;;
58222;SDS011;44020;50.890;15.796;2022-12-07T00:09:45;2.20;;;1.00;;
58222;SDS011;44020;50.890;15.796;2022-12-07T00:12:12;3.70;;;1.70;;
58222;SDS011;44020;50.890;15.796;2022-12-07T00:14:39;2.10;;;0.70;;
58222;SDS011;44020;50.890;15.796;2022-12-07T00:17:06;2.00;;;0.60;;
58222;SDS011;44020;50.890;15.796;2022-12-07T00:19:33;3.00;;;0.80;;
58222;SDS011;44020;50.890;15.796;2022-12-07T00:22:00;3.70;;;1.30;;
58222;SDS011;44020;50.890;15.796;2022-12-07T00:24:27;2.90;;;1.10;;
58222;SDS011;44020;50.890;15.796;2022-12-07T00:26:54;4.20;;;1.50;;
58222;SDS011;44020;50.890;15.796;2022-12-07T00:29:21;2.80;;;1.10;;
58222;SDS011;44020;50.890;15.796;2022-12-07T00:31:50;3.40;;;1.20;;
58222;SDS011;44020;50.890;15.796;2022-12-07T00:34:18;4.20;;;1.70;;
58222;SDS011;44020;50.890;15.796;2022-12-07T00:36:47;3.50;;;1.40;;
58222;SDS011;44020;50.890;15.796;2022-12-07T00:39:15;2.30;;;1.30;;
58222;SDS011;44020;50.890;15.796;2022-12-07T00:41:43;1.80;;;1.00;;
58222;SDS011;44020;50.890;15.796;2022-12-07T00:44:10;1.90;;;1.00;;
58222;SDS011;44020;50.890;15.796;2022-12-07T00:46:37;1.30;;;0.50;;
58222;SDS011;44020;50.890;15.796;2022-12-07T00:49:05;1.20;;;0.70;;
58222;SDS011;44020;50.890;15.796;2022-12-07T00:51:32;0.80;;;0.50;;
58222;SDS011;44020;50.890;15.796;2022-12-07T00:53:59;1.40;;;0.90;;
58222;SDS011;44020;50.890;15.796;2022-12-07T00:56:27;1.10;;;0.60;;
58222;SDS011;44020;50.890;15.796;2022-12-07T00:58:56;1.80;;;1.00;;
58222;SDS011;44020;50.890;15.796;2022-12-07T01:01:25;2.80;;;1.20;;
58222;SDS011;44020;50.890;15.796;2022-12-07T01:03:54;2.20;;;0.80;;
58222;SDS011;44020;50.890;15.796;2022-12-07T01:06:22;6.10;;;2.50;;
58222;SDS011;44020;50.890;15.796;2022-12-07T01:08:50;3.30;;;1.60;;
58222;SDS011;44020;50.890;15.796;2022-12-07T01:11:19;1.70;;;0.90;;
58222;SDS011;44020;50.890;15.796;2022-12-07T01:13:49;2.50;;;1.20;;
58222;SDS011;44020;50.890;15.796;2022-12-07T01:16:22;1.00;;;0.80;;
58222;SDS011;44020;50.890;15.796;2022-12-07T01:18:52;2.20;;;1.30;;
58222;SDS011;44020;50.890;15.796;2022-12-07T01:21:24;1.60;;;0.80;;
58222;SDS011;44020;50.890;15.796;2022-12-07T01:23:53;2.20;;;1.20;;
58222;SDS011;44020;50.890;15.796;2022-12-07T01:26:21;3.30;;;1.90;;
58222;SDS011;44020;50.890;15.796;2022-12-07T01:28:50;2.70;;;1.50;;
58222;SDS011;44020;50.890;15.796;2022-12-07T01:31:19;11.80;;;3.70;;
58222;SDS011;44020;50.890;15.796;2022-12-07T01:33:48;2.80;;;1.00;;
58222;SDS011;44020;50.890;15.796;2022-12-07T01:38:56;1.60;;;1.00;;
58222;SDS011;44020;50.890;15.796;2022-12-07T01:41:26;1.20;;;0.70;;
58222;SDS011;44020;50.890;15.796;2022-12-07T01:44:14;1.40;;;0.80;;
58222;SDS011;44020;50.890;15.796;2022-12-07T01:46:48;1.40;;;0.90;;
58222;SDS011;44020;50.890;15.796;2022-12-07T01:49:24;1.80;;;0.90;;
58222;SDS011;44020;50.890;15.796;2022-12-07T01:52:10;1.00;;;0.70;;
58222;SDS011;44020;50.890;15.796;2022-12-07T01:54:43;1.30;;;0.50;;
58222;SDS011;44020;50.890;15.796;2022-12-07T01:57:13;0.70;;;0.50;;
58222;SDS011;44020;50.890;15.796;2022-12-07T01:59:43;0.60;;;0.40;;
58222;SDS011;44020;50.890;15.796;2022-12-07T02:02:34;1.00;;;0.50;;
58222;SDS011;44020;50.890;15.796;2022-12-07T02:05:02;1.00;;;0.60;;
58222;SDS011;44020;50.890;15.796;2022-12-07T02:07:31;0.80;;;0.40;;
58222;SDS011;44020;50.890;15.796;2022-12-07T02:12:46;0.40;;;0.30;;
58222;SDS011;44020;50.890;15.796;2022-12-07T02:15:16;0.90;;;0.40;;
58222;SDS011;44020;50.890;15.796;2022-12-07T02:20:27;0.40;;;0.20;;
58222;SDS011;44020;50.890;15.796;2022-12-07T02:31:32;0.40;;;0.20;;
58222;SDS011;44020;50.890;15.796;2022-12-07T02:34:09;1.30;;;0.50;;
58222;SDS011;44020;50.890;15.796;2022-12-07T02:36:52;0.40;;;0.30;;
58222;SDS011;44020;50.890;15.796;2022-12-07T02:42:15;0.30;;;0.20;;
58222;SDS011;44020;50.890;15.796;2022-12-07T02:44:47;0.50;;;0.30;;
58222;SDS011;44020;50.890;15.796;2022-12-07T02:47:15;0.40;;;0.20;;
58222;SDS011;44020;50.890;15.796;2022-12-07T02:49:46;1.10;;;0.40;;
58222;SDS011;44020;50.890;15.796;2022-12-07T02:52:14;1.10;;;0.40;;
58222;SDS011;44020;50.890;15.796;2022-12-07T02:54:41;0.60;;;0.30;;
58222;SDS011;44020;50.890;15.796;2022-12-07T03:00:19;1.70;;;0.60;;
58222;SDS011;44020;50.890;15.796;2022-12-07T03:03:09;0.80;;;0.50;;
58222;SDS011;44020;50.890;15.796;2022-12-07T03:11:03;2.60;;;0.90;;
58222;SDS011;44020;50.890;15.796;2022-12-07T03:16:40;1.50;;;0.70;;
58222;SDS011;44020;50.890;15.796;2022-12-07T03:19:14;1.70;;;0.60;;
58222;SDS011;44020;50.890;15.796;2022-12-07T03:21:49;1.50;;;0.60;;
58222;SDS011;44020;50.890;15.796;2022-12-07T03:24:23;1.70;;;0.80;;
58222;SDS011;44020;50.890;15.796;2022-12-07T03:27:02;2.70;;;1.50;;
58222;SDS011;44020;50.890;15.796;2022-12-07T03:29:34;2.20;;;0.80;;
58222;SDS011;44020;50.890;15.796;2022-12-07T03:32:25;2.80;;;1.00;;
58222;SDS011;44020;50.890;15.796;2022-12-07T03:37:36;1.50;;;0.70;;
58222;SDS011;44020;50.890;15.796;2022-12-07T03:40:27;0.90;;;0.60;;
58222;SDS011;44020;50.890;15.796;2022-12-07T03:42:59;1.10;;;0.60;;
58222;SDS011;44020;50.890;15.796;2022-12-07T03:45:38;2.10;;;1.10;;
58222;SDS011;44020;50.890;15.796;2022-12-07T03:48:22;2.10;;;1.00;;
58222;SDS011;44020;50.890;15.796;2022-12-07T03:53:44;3.00;;;1.60;;
58222;SDS011;44020;50.890;15.796;2022-12-07T03:56:20;2.40;;;1.40;;
58222;SDS011;44020;50.890;15.796;2022-12-07T03:58:49;3.20;;;1.80;;
58222;SDS011;44020;50.890;15.796;2022-12-07T04:01:17;2.90;;;1.80;;
58222;SDS011;44020;50.890;15.796;2022-12-07T04:03:45;2.50;;;1.40;;
58222;SDS011;44020;50.890;15.796;2022-12-07T04:06:12;3.30;;;2.20;;
58222;SDS011;44020;50.890;15.796;2022-12-07T04:08:40;5.40;;;2.90;;
58222;SDS011;44020;50.890;15.796;2022-12-07T04:11:07;6.40;;;3.20;;
58222;SDS011;44020;50.890;15.796;2022-12-07T04:13:34;5.10;;;2.60;;
58222;SDS011;44020;50.890;15.796;2022-12-07T04:16:21;4.70;;;2.80;;
58222;SDS011;44020;50.890;15.796;2022-12-07T04:18:48;6.80;;;3.80;;
58222;SDS011;44020;50.890;15.796;2022-12-07T04:21:16;7.60;;;4.00;;
58222;SDS011;44020;50.890;15.796;2022-12-07T04:23:43;16.70;;;6.50;;
58222;SDS011;44020;50.890;15.796;2022-12-07T04:26:10;7.90;;;4.00;;
58222;SDS011;44020;50.890;15.796;2022-12-07T04:28:37;7.90;;;4.60;;
58222;SDS011;44020;50.890;15.796;2022-12-07T04:31:04;5.70;;;3.70;;
58222;SDS011;44020;50.890;15.796;2022-12-07T04:33:31;7.50;;;4.60;;
58222;SDS011;44020;50.890;15.796;2022-12-07T04:35:58;9.10;;;4.90;;
58222;SDS011;44020;50.890;15.796;2022-12-07T04:38:25;13.80;;;7.50;;
58222;SDS011;44020;50.890;15.796;2022-12-07T04:40:52;9.80;;;5.60;;
58222;SDS011;44020;50.890;15.796;2022-12-07T04:43:20;7.50;;;4.80;;
58222;SDS011;44020;50.890;15.796;2022-12-07T04:45:47;8.90;;;4.80;;
58222;SDS011;44020;50.890;15.796;2022-12-07T04:48:15;9.90;;;5.60;;
58222;SDS011;44020;50.890;15.796;2022-12-07T04:50:42;10.10;;;5.60;;
58222;SDS011;44020;50.890;15.796;2022-12-07T04:53:09;8.80;;;4.80;;
58222;SDS011;44020;50.890;15.796;2022-12-07T04:55:36;12.00;;;6.00;;
58222;SDS011;44020;50.890;15.796;2022-12-07T04:58:03;14.10;;;6.70;;
58222;SDS011;44020;50.890;15.796;2022-12-07T05:00:30;16.40;;;6.90;;
58222;SDS011;44020;50.890;15.796;2022-12-07T05:02:57;11.10;;;6.10;;
58222;SDS011;44020;50.890;15.796;2022-12-07T05:05:24;13.10;;;6.70;;
58222;SDS011;44020;50.890;15.796;2022-12-07T05:07:51;11.00;;;6.00;;
58222;SDS011;44020;50.890;15.796;2022-12-07T05:10:18;11.90;;;6.30;;
58222;SDS011;44020;50.890;15.796;2022-12-07T05:12:46;11.20;;;6.40;;
58222;SDS011;44020;50.890;15.796;2022-12-07T05:15:14;11.50;;;5.90;;
58222;SDS011;44020;50.890;15.796;2022-12-07T05:17:42;15.40;;;8.50;;
58222;SDS011;44020;50.890;15.796;2022-12-07T05:20:09;15.40;;;8.20;;
58222;SDS011;44020;50.890;15.796;2022-12-07T05:22:37;11.40;;;6.20;;
58222;SDS011;44020;50.890;15.796;2022-12-07T05:25:04;11.20;;;6.10;;
58222;SDS011;44020;50.890;15.796;2022-12-07T05:27:31;12.70;;;7.30;;
58222;SDS011;44020;50.890;15.796;2022-12-07T05:30:01;18.40;;;8.30;;
58222;SDS011;44020;50.890;15.796;2022-12-07T05:32:29;10.20;;;5.70;;
58222;SDS011;44020;50.890;15.796;2022-12-07T05:34:56;20.40;;;10.90;;
58222;SDS011;44020;50.890;15.796;2022-12-07T05:37:23;16.30;;;8.10;;
58222;SDS011;44020;50.890;15.796;2022-12-07T05:39:50;16.60;;;8.70;;
58222;SDS011;44020;50.890;15.796;2022-12-07T05:42:17;11.30;;;6.00;;
58222;SDS011;44020;50.890;15.796;2022-12-07T05:44:45;11.10;;;6.20;;
58222;SDS011;44020;50.890;15.796;2022-12-07T05:47:13;12.30;;;6.90;;
58222;SDS011;44020;50.890;15.796;2022-12-07T05:49:41;19.50;;;9.60;;
58222;SDS011;44020;50.890;15.796;2022-12-07T05:52:08;18.40;;;8.50;;
58222;SDS011;44020;50.890;15.796;2022-12-07T05:54:35;18.80;;;8.70;;
58222;SDS011;44020;50.890;15.796;2022-12-07T05:57:03;20.20;;;10.10;;
58222;SDS011;44020;50.890;15.796;2022-12-07T05:59:30;15.00;;;7.70;;
58222;SDS011;44020;50.890;15.796;2022-12-07T06:01:58;13.90;;;7.40;;
58222;SDS011;44020;50.890;15.796;2022-12-07T06:04:27;17.90;;;7.60;;
58222;SDS011;44020;50.890;15.796;2022-12-07T06:06:56;14.50;;;7.90;;
58222;SDS011;44020;50.890;15.796;2022-12-07T06:09:25;12.10;;;7.70;;
58222;SDS011;44020;50.890;15.796;2022-12-07T06:11:54;15.50;;;8.30;;
58222;SDS011;44020;50.890;15.796;2022-12-07T06:14:41;10.10;;;5.80;;
58222;SDS011;44020;50.890;15.796;2022-12-07T06:17:09;10.10;;;5.80;;
58222;SDS011;44020;50.890;15.796;2022-12-07T06:19:37;11.30;;;6.30;;
58222;SDS011;44020;50.890;15.796;2022-12-07T06:22:05;9.30;;;5.30;;
58222;SDS011;44020;50.890;15.796;2022-12-07T06:24:32;12.60;;;6.10;;
58222;SDS011;44020;50.890;15.796;2022-12-07T06:27:00;10.80;;;6.30;;
58222;SDS011;44020;50.890;15.796;2022-12-07T06:29:27;10.20;;;5.80;;
58222;SDS011;44020;50.890;15.796;2022-12-07T06:31:54;8.80;;;4.80;;
58222;SDS011;44020;50.890;15.796;2022-12-07T06:34:22;8.70;;;4.80;;
58222;SDS011;44020;50.890;15.796;2022-12-07T06:36:50;7.90;;;4.10;;
58222;SDS011;44020;50.890;15.796;2022-12-07T06:39:29;5.90;;;3.40;;
58222;SDS011;44020;50.890;15.796;2022-12-07T06:41:56;8.50;;;3.80;;
58222;SDS011;44020;50.890;15.796;2022-12-07T06:44:24;8.20;;;5.10;;
58222;SDS011;44020;50.890;15.796;2022-12-07T06:46:52;9.70;;;5.30;;
58222;SDS011;44020;50.890;15.796;2022-12-07T06:49:20;8.00;;;4.10;;
58222;SDS011;44020;50.890;15.796;2022-12-07T06:51:47;9.50;;;4.90;;
58222;SDS011;44020;50.890;15.796;2022-12-07T06:54:15;11.00;;;5.40;;
58222;SDS011;44020;50.890;15.796;2022-12-07T06:56:42;10.90;;;5.80;;
58222;SDS011;44020;50.890;15.796;2022-12-07T06:59:10;9.40;;;4.60;;
58222;SDS011;44020;50.890;15.796;2022-12-07T07:01:37;6.80;;;4.50;;
58222;SDS011;44020;50.890;15.796;2022-12-07T07:04:04;7.50;;;3.70;;
58222;SDS011;44020;50.890;15.796;2022-12-07T07:06:31;8.40;;;4.50;;
58222;SDS011;44020;50.890;15.796;2022-12-07T07:08:59;6.10;;;3.90;;
58222;SDS011;44020;50.890;15.796;2022-12-07T07:11:26;8.10;;;4.70;;
58222;SDS011;44020;50.890;15.796;2022-12-07T07:13:53;6.40;;;4.60;;
58222;SDS011;44020;50.890;15.796;2022-12-07T07:16:23;6.10;;;4.10;;
58222;SDS011;44020;50.890;15.796;2022-12-07T07:18:51;8.30;;;4.80;;
58222;SDS011;44020;50.890;15.796;2022-12-07T07:21:18;4.80;;;3.50;;
58222;SDS011;44020;50.890;15.796;2022-12-07T07:23:45;6.60;;;3.90;;
58222;SDS011;44020;50.890;15.796;2022-12-07T07:26:12;5.50;;;3.70;;
58222;SDS011;44020;50.890;15.796;2022-12-07T07:28:39;6.20;;;3.00;;
58222;SDS011;44020;50.890;15.796;2022-12-07T07:31:06;4.20;;;2.40;;
58222;SDS011;44020;50.890;15.796;2022-12-07T07:33:33;3.60;;;2.20;;
58222;SDS011;44020;50.890;15.796;2022-12-07T07:36:00;4.10;;;2.50;;
58222;SDS011;44020;50.890;15.796;2022-12-07T07:38:27;3.80;;;1.70;;
58222;SDS011;44020;50.890;15.796;2022-12-07T07:40:54;3.30;;;1.90;;
58222;SDS011;44020;50.890;15.796;2022-12-07T07:43:21;3.90;;;2.10;;
58222;SDS011;44020;50.890;15.796;2022-12-07T07:45:48;4.20;;;2.20;;
58222;SDS011;44020;50.890;15.796;2022-12-07T07:48:15;3.10;;;2.00;;
58222;SDS011;44020;50.890;15.796;2022-12-07T07:50:42;3.60;;;2.20;;
58222;SDS011;44020;50.890;15.796;2022-12-07T07:53:09;3.80;;;1.90;;
58222;SDS011;44020;50.890;15.796;2022-12-07T07:55:36;4.70;;;2.10;;
58222;SDS011;44020;50.890;15.796;2022-12-07T07:58:03;4.40;;;2.20;;
58222;SDS011;44020;50.890;15.796;2022-12-07T08:00:30;6.40;;;2.30;;
58222;SDS011;44020;50.890;15.796;2022-12-07T08:02:58;4.10;;;2.50;;
58222;SDS011;44020;50.890;15.796;2022-12-07T08:05:25;3.20;;;2.20;;
58222;SDS011;44020;50.890;15.796;2022-12-07T08:07:52;3.60;;;1.70;;
58222;SDS011;44020;50.890;15.796;2022-12-07T08:10:20;4.10;;;2.20;;
58222;SDS011;44020;50.890;15.796;2022-12-07T08:12:47;3.70;;;2.00;;
58222;SDS011;44020;50.890;15.796;2022-12-07T08:15:32;5.60;;;2.80;;
58222;SDS011;44020;50.890;15.796;2022-12-07T08:17:59;6.60;;;3.40;;
58222;SDS011;44020;50.890;15.796;2022-12-07T08:20:26;8.10;;;4.30;;
58222;SDS011;44020;50.890;15.796;2022-12-07T08:22:56;7.00;;;3.40;;
58222;SDS011;44020;50.890;15.796;2022-12-07T08:25:23;5.50;;;2.60;;
58222;SDS011;44020;50.890;15.796;2022-12-07T08:27:51;5.10;;;2.60;;
58222;SDS011;44020;50.890;15.796;2022-12-07T08:30:18;5.90;;;3.10;;
58222;SDS011;44020;50.890;15.796;2022-12-07T08:32:47;3.50;;;2.40;;
58222;SDS011;44020;50.890;15.796;2022-12-07T08:35:14;5.30;;;2.90;;
58222;SDS011;44020;50.890;15.796;2022-12-07T08:37:42;6.20;;;3.00;;
58222;SDS011;44020;50.890;15.796;2022-12-07T08:40:09;5.50;;;3.10;;
58222;SDS011;44020;50.890;15.796;2022-12-07T08:42:42;4.10;;;2.50;;
58222;SDS011;44020;50.890;15.796;2022-12-07T08:45:11;4.90;;;2.80;;
58222;SDS011;44020;50.890;15.796;2022-12-07T08:47:42;5.90;;;2.70;;
58222;SDS011;44020;50.890;15.796;2022-12-07T08:50:16;5.90;;;2.90;;
58222;SDS011;44020;50.890;15.796;2022-12-07T08:52:44;5.60;;;3.00;;
58222;SDS011;44020;50.890;15.796;2022-12-07T08:55:19;4.20;;;3.00;;
58222;SDS011;44020;50.890;15.796;2022-12-07T08:57:46;7.20;;;3.60;;
58222;SDS011;44020;50.890;15.796;2022-12-07T09:00:14;3.40;;;1.90;;
58222;SDS011;44020;50.890;15.796;2022-12-07T09:02:41;24.50;;;14.80;;
58222;SDS011;44020;50.890;15.796;2022-12-07T09:05:09;12.30;;;8.60;;
58222;SDS011;44020;50.890;15.796;2022-12-07T09:07:38;6.30;;;3.60;;
58222;SDS011;44020;50.890;15.796;2022-12-07T09:10:05;12.70;;;8.80;;
58222;SDS011;44020;50.890;15.796;2022-12-07T09:12:33;3.40;;;2.10;;
58222;SDS011;44020;50.890;15.796;2022-12-07T09:15:00;3.40;;;2.00;;
58222;SDS011;44020;50.890;15.796;2022-12-07T09:17:27;6.90;;;2.10;;
58222;SDS011;44020;50.890;15.796;2022-12-07T09:19:58;3.60;;;1.90;;
58222;SDS011;44020;50.890;15.796;2022-12-07T09:22:30;4.20;;;2.00;;
58222;SDS011;44020;50.890;15.796;2022-12-07T09:24:57;3.60;;;1.80;;
58222;SDS011;44020;50.890;15.796;2022-12-07T09:27:26;3.40;;;2.00;;
58222;SDS011;44020;50.890;15.796;2022-12-07T09:29:53;2.50;;;1.80;;
58222;SDS011;44020;50.890;15.796;2022-12-07T09:32:21;3.00;;;1.70;;
58222;SDS011;44020;50.890;15.796;2022-12-07T09:34:48;4.60;;;2.10;;
58222;SDS011;44020;50.890;15.796;2022-12-07T09:37:15;2.40;;;1.80;;
58222;SDS011;44020;50.890;15.796;2022-12-07T09:39:42;4.90;;;2.60;;
58222;SDS011;44020;50.890;15.796;2022-12-07T09:42:11;3.40;;;1.60;;
58222;SDS011;44020;50.890;15.796;2022-12-07T09:44:51;3.90;;;2.20;;
58222;SDS011;44020;50.890;15.796;2022-12-07T09:47:18;5.60;;;2.50;;
58222;SDS011;44020;50.890;15.796;2022-12-07T09:49:45;4.70;;;2.30;;
58222;SDS011;44020;50.890;15.796;2022-12-07T09:52:19;5.80;;;2.40;;
58222;SDS011;44020;50.890;15.796;2022-12-07T09:54:51;3.70;;;2.30;;
58222;SDS011;44020;50.890;15.796;2022-12-07T09:57:20;3.80;;;2.20;;
58222;SDS011;44020;50.890;15.796;2022-12-07T09:59:55;3.40;;;2.30;;
58222;SDS011;44020;50.890;15.796;2022-12-07T10:02:34;3.90;;;2.00;;
58222;SDS011;44020;50.890;15.796;2022-12-07T10:05:05;3.60;;;2.10;;
58222;SDS011;44020;50.890;15.796;2022-12-07T10:07:34;3.10;;;1.60;;
58222;SDS011;44020;50.890;15.796;2022-12-07T10:10:02;3.00;;;1.70;;
58222;SDS011;44020;50.890;15.796;2022-12-07T10:12:31;4.80;;;2.80;;
58222;SDS011;44020;50.890;15.796;2022-12-07T10:15:22;4.40;;;2.40;;
58222;SDS011;44020;50.890;15.796;2022-12-07T10:17:52;4.10;;;2.30;;
58222;SDS011;44020;50.890;15.796;2022-12-07T10:20:21;5.20;;;2.80;;
58222;SDS011;44020;50.890;15.796;2022-12-07T10:23:05;4.20;;;2.50;;
58222;SDS011;44020;50.890;15.796;2022-12-07T10:25:41;5.10;;;2.50;;
58222;SDS011;44020;50.890;15.796;2022-12-07T10:28:16;3.80;;;2.40;;
58222;SDS011;44020;50.890;15.796;2022-12-07T10:33:30;3.10;;;1.80;;
58222;SDS011;44020;50.890;15.796;2022-12-07T10:36:19;6.00;;;1.90;;
58222;SDS011;44020;50.890;15.796;2022-12-07T10:38:59;4.00;;;2.20;;
58222;SDS011;44020;50.890;15.796;2022-12-07T10:41:29;5.40;;;2.60;;
58222;SDS011;44020;50.890;15.796;2022-12-07T10:43:57;3.90;;;2.40;;
58222;SDS011;44020;50.890;15.796;2022-12-07T10:46:28;6.30;;;2.60;;
58222;SDS011;44020;50.890;15.796;2022-12-07T10:55:08;4.70;;;2.70;;
58222;SDS011;44020;50.890;15.796;2022-12-07T10:58:15;6.20;;;2.50;;
58222;SDS011;44020;50.890;15.796;2022-12-07T11:00:54;3.50;;;1.80;;
58222;SDS011;44020;50.890;15.796;2022-12-07T11:08:57;5.20;;;2.20;;
58222;SDS011;44020;50.890;15.796;2022-12-07T11:19:33;4.50;;;2.40;;
58222;SDS011;44020;50.890;15.796;2022-12-07T11:22:19;3.90;;;1.80;;
58222;SDS011;44020;50.890;15.796;2022-12-07T11:27:42;3.50;;;1.90;;
58222;SDS011;44020;50.890;15.796;2022-12-07T11:30:27;5.90;;;1.70;;
58222;SDS011;44020;50.890;15.796;2022-12-07T11:33:14;6.40;;;3.70;;
58222;SDS011;44020;50.890;15.796;2022-12-07T11:36:06;3.30;;;1.80;;
58222;SDS011;44020;50.890;15.796;2022-12-07T11:41:23;6.00;;;2.70;;
58222;SDS011;44020;50.890;15.796;2022-12-07T11:43:57;5.70;;;2.50;;
58222;SDS011;44020;50.890;15.796;2022-12-07T11:47:17;4.80;;;2.20;;
58222;SDS011;44020;50.890;15.796;2022-12-07T11:49:49;4.20;;;2.60;;
58222;SDS011;44020;50.890;15.796;2022-12-07T11:55:15;3.60;;;2.30;;
58222;SDS011;44020;50.890;15.796;2022-12-07T11:58:06;8.40;;;3.40;;
58222;SDS011;44020;50.890;15.796;2022-12-07T12:00:51;4.40;;;2.40;;
58222;SDS011;44020;50.890;15.796;2022-12-07T12:03:29;6.60;;;3.60;;
58222;SDS011;44020;50.890;15.796;2022-12-07T12:06:00;7.20;;;3.20;;
58222;SDS011;44020;50.890;15.796;2022-12-07T12:08:35;4.10;;;2.80;;
58222;SDS011;44020;50.890;15.796;2022-12-07T12:22:33;8.80;;;3.70;;
58222;SDS011;44020;50.890;15.796;2022-12-07T12:25:07;5.30;;;2.60;;
58222;SDS011;44020;50.890;15.796;2022-12-07T12:27:47;4.20;;;2.70;;
58222;SDS011;44020;50.890;15.796;2022-12-07T12:30:37;7.40;;;3.30;;
58222;SDS011;44020;50.890;15.796;2022-12-07T12:33:13;6.10;;;2.60;;
58222;SDS011;44020;50.890;15.796;2022-12-07T12:36:16;11.10;;;4.50;;
58222;SDS011;44020;50.890;15.796;2022-12-07T12:46:51;12.40;;;4.80;;
58222;SDS011;44020;50.890;15.796;2022-12-07T12:55:00;7.00;;;3.40;;
58222;SDS011;44020;50.890;15.796;2022-12-07T12:57:33;5.90;;;2.30;;
58222;SDS011;44020;50.890;15.796;2022-12-07T13:00:21;4.70;;;2.60;;
58222;SDS011;44020;50.890;15.796;2022-12-07T13:02:52;5.70;;;3.70;;
58222;SDS011;44020;50.890;15.796;2022-12-07T13:05:28;7.30;;;3.60;;
58222;SDS011;44020;50.890;15.796;2022-12-07T13:08:01;11.30;;;5.40;;
58222;SDS011;44020;50.890;15.796;2022-12-07T13:10:49;7.50;;;3.70;;
58222;SDS011;44020;50.890;15.796;2022-12-07T13:15:50;8.80;;;3.80;;
58222;SDS011;44020;50.890;15.796;2022-12-07T13:28:48;8.40;;;3.80;;
58222;SDS011;44020;50.890;15.796;2022-12-07T13:31:37;7.80;;;3.00;;
58222;SDS011;44020;50.890;15.796;2022-12-07T13:37:10;7.80;;;3.00;;
58222;SDS011;44020;50.890;15.796;2022-12-07T13:39:46;6.80;;;2.90;;
58222;SDS011;44020;50.890;15.796;2022-12-07T13:42:27;10.30;;;5.60;;
58222;SDS011;44020;50.890;15.796;2022-12-07T13:44:56;7.90;;;4.70;;
58222;SDS011;44020;50.890;15.796;2022-12-07T13:49:54;7.80;;;4.20;;
58222;SDS011;44020;50.890;15.796;2022-12-07T13:54:56;10.10;;;5.90;;
58222;SDS011;44020;50.890;15.796;2022-12-07T13:57:27;11.00;;;5.60;;
58222;SDS011;44020;50.890;15.796;2022-12-07T13:59:57;11.00;;;6.80;;
58222;SDS011;44020;50.890;15.796;2022-12-07T14:02:26;8.60;;;5.40;;
58222;SDS011;44020;50.890;15.796;2022-12-07T14:05:15;10.10;;;6.70;;
58222;SDS011;44020;50.890;15.796;2022-12-07T14:12:56;9.80;;;5.50;;
58222;SDS011;44020;50.890;15.796;2022-12-07T14:15:31;8.10;;;3.90;;
58222;SDS011;44020;50.890;15.796;2022-12-07T14:18:01;9.30;;;4.90;;
58222;SDS011;44020;50.890;15.796;2022-12-07T14:20:39;8.70;;;4.90;;
58222;SDS011;44020;50.890;15.796;2022-12-07T14:23:21;8.90;;;4.80;;
58222;SDS011;44020;50.890;15.796;2022-12-07T14:25:52;11.20;;;6.20;;
58222;SDS011;44020;50.890;15.796;2022-12-07T14:28:33;14.00;;;9.20;;
58222;SDS011;44020;50.890;15.796;2022-12-07T14:31:02;14.60;;;7.80;;
58222;SDS011;44020;50.890;15.796;2022-12-07T14:33:30;13.50;;;8.60;;
58222;SDS011;44020;50.890;15.796;2022-12-07T14:35:57;14.10;;;6.90;;
58222;SDS011;44020;50.890;15.796;2022-12-07T14:38:25;14.80;;;8.20;;
58222;SDS011;44020;50.890;15.796;2022-12-07T14:40:53;17.70;;;8.20;;
58222;SDS011;44020;50.890;15.796;2022-12-07T14:43:41;22.80;;;10.60;;
58222;SDS011;44020;50.890;15.796;2022-12-07T14:46:08;15.20;;;7.60;;
58222;SDS011;44020;50.890;15.796;2022-12-07T14:48:36;12.50;;;6.80;;
58222;SDS011;44020;50.890;15.796;2022-12-07T14:51:03;11.50;;;6.90;;
58222;SDS011;44020;50.890;15.796;2022-12-07T14:53:35;12.20;;;5.90;;
58222;SDS011;44020;50.890;15.796;2022-12-07T14:56:06;12.40;;;6.20;;
58222;SDS011;44020;50.890;15.796;2022-12-07T14:58:33;9.50;;;4.80;;
58222;SDS011;44020;50.890;15.796;2022-12-07T15:01:00;7.90;;;4.00;;
58222;SDS011;44020;50.890;15.796;2022-12-07T15:03:28;8.40;;;4.00;;
58222;SDS011;44020;50.890;15.796;2022-12-07T15:05:56;8.30;;;4.20;;
58222;SDS011;44020;50.890;15.796;2022-12-07T15:08:23;6.90;;;3.90;;
58222;SDS011;44020;50.890;15.796;2022-12-07T15:10:50;7.30;;;3.40;;
58222;SDS011;44020;50.890;15.796;2022-12-07T15:13:17;7.40;;;3.50;;
58222;SDS011;44020;50.890;15.796;2022-12-07T15:16:03;4.90;;;2.90;;
58222;SDS011;44020;50.890;15.796;2022-12-07T15:18:30;9.60;;;4.00;;
58222;SDS011;44020;50.890;15.796;2022-12-07T15:20:57;11.50;;;4.70;;
58222;SDS011;44020;50.890;15.796;2022-12-07T15:23:24;17.40;;;6.70;;
58222;SDS011;44020;50.890;15.796;2022-12-07T15:25:51;18.50;;;8.60;;
58222;SDS011;44020;50.890;15.796;2022-12-07T15:28:18;18.20;;;8.10;;
58222;SDS011;44020;50.890;15.796;2022-12-07T15:30:45;14.90;;;6.20;;
58222;SDS011;44020;50.890;15.796;2022-12-07T15:33:12;15.70;;;6.60;;
58222;SDS011;44020;50.890;15.796;2022-12-07T15:35:44;33.70;;;17.40;;
58222;SDS011;44020;50.890;15.796;2022-12-07T15:38:11;22.20;;;11.10;;
58222;SDS011;44020;50.890;15.796;2022-12-07T15:40:38;15.90;;;7.10;;
58222;SDS011;44020;50.890;15.796;2022-12-07T15:43:08;15.80;;;8.20;;
58222;SDS011;44020;50.890;15.796;2022-12-07T15:45:56;10.90;;;5.90;;
58222;SDS011;44020;50.890;15.796;2022-12-07T15:48:23;8.40;;;5.20;;
58222;SDS011;44020;50.890;15.796;2022-12-07T15:50:50;17.10;;;8.40;;
58222;SDS011;44020;50.890;15.796;2022-12-07T15:53:17;26.30;;;10.30;;
58222;SDS011;44020;50.890;15.796;2022-12-07T15:55:44;28.80;;;13.10;;
58222;SDS011;44020;50.890;15.796;2022-12-07T15:58:11;22.40;;;12.20;;
58222;SDS011;44020;50.890;15.796;2022-12-07T16:00:38;17.70;;;9.80;;
58222;SDS011;44020;50.890;15.796;2022-12-07T16:03:05;20.60;;;9.60;;
58222;SDS011;44020;50.890;15.796;2022-12-07T16:05:32;37.50;;;17.00;;
58222;SDS011;44020;50.890;15.796;2022-12-07T16:08:00;21.90;;;10.00;;
58222;SDS011;44020;50.890;15.796;2022-12-07T16:10:27;21.90;;;8.20;;
58222;SDS011;44020;50.890;15.796;2022-12-07T16:12:54;18.50;;;8.10;;
58222;SDS011;44020;50.890;15.796;2022-12-07T16:15:21;24.50;;;13.30;;
58222;SDS011;44020;50.890;15.796;2022-12-07T16:17:48;11.00;;;5.60;;
58222;SDS011;44020;50.890;15.796;2022-12-07T16:20:15;10.60;;;6.10;;
58222;SDS011;44020;50.890;15.796;2022-12-07T16:22:42;8.30;;;4.40;;
58222;SDS011;44020;50.890;15.796;2022-12-07T16:25:09;7.40;;;4.10;;
58222;SDS011;44020;50.890;15.796;2022-12-07T16:27:37;7.20;;;3.50;;
58222;SDS011;44020;50.890;15.796;2022-12-07T16:30:04;15.00;;;10.00;;
58222;SDS011;44020;50.890;15.796;2022-12-07T16:32:32;7.30;;;3.60;;
58222;SDS011;44020;50.890;15.796;2022-12-07T16:34:59;7.70;;;4.10;;
58222;SDS011;44020;50.890;15.796;2022-12-07T16:37:26;10.00;;;6.00;;
58222;SDS011;44020;50.890;15.796;2022-12-07T16:39:53;8.10;;;5.40;;
58222;SDS011;44020;50.890;15.796;2022-12-07T16:42:20;10.50;;;4.50;;
58222;SDS011;44020;50.890;15.796;2022-12-07T16:44:47;6.90;;;4.20;;
58222;SDS011;44020;50.890;15.796;2022-12-07T16:47:14;9.00;;;5.20;;
58222;SDS011;44020;50.890;15.796;2022-12-07T16:49:42;6.50;;;4.30;;
58222;SDS011;44020;50.890;15.796;2022-12-07T16:52:09;6.30;;;3.80;;